sensor_id;sensor_type;location;lat;lon;timestamp;P1;durP1;ratioP1;P2;durP2;ratioP2
21036;SDS011;10677;50.942;4.028;2022-08-14T00:02:24;7.82;;;3.03;;
21036;SDS011;10677;50.942;4.028;2022-08-14T00:04:51;7.32;;;2.50;;
21036;SDS011;10677;50.942;4.028;2022-08-14T00:07:16;6.00;;;2.70;;
21036;SDS011;10677;50.942;4.028;2022-08-14T00:09:43;4.20;;;2.47;;
21036;SDS011;10677;50.942;4.028;2022-08-14T00:12:09;5.68;;;2.80;;
21036;SDS011;10677;50.942;4.028;2022-08-14T00:14:35;8.70;;;2.80;;
21036;SDS011;10677;50.942;4.028;2022-08-14T00:17:01;6.65;;;2.58;;
21036;SDS011;10677;50.942;4.028;2022-08-14T00:19:27;5.65;;;3.10;;
21036;SDS011;10677;50.942;4.028;2022-08-14T00:21:53;8.35;;;2.80;;
21036;SDS011;10677;50.942;4.028;2022-08-14T00:24:19;7.85;;;2.72;;
21036;SDS011;10677;50.942;4.028;2022-08-14T00:26:45;9.88;;;3.17;;
21036;SDS011;10677;50.942;4.028;2022-08-14T00:29:11;5.85;;;2.50;;
21036;SDS011;10677;50.942;4.028;2022-08-14T00:31:37;7.55;;;2.78;;
21036;SDS011;10677;50.942;4.028;2022-08-14T00:34:02;6.13;;;3.13;;
21036;SDS011;10677;50.942;4.028;2022-08-14T00:36:28;7.45;;;2.50;;
21036;SDS011;10677;50.942;4.028;2022-08-14T00:38:54;10.45;;;2.88;;
21036;SDS011;10677;50.942;4.028;2022-08-14T00:41:20;5.25;;;2.60;;
21036;SDS011;10677;50.942;4.028;2022-08-14T00:43:45;5.55;;;2.42;;
21036;SDS011;10677;50.942;4.028;2022-08-14T00:46:12;8.10;;;2.80;;
21036;SDS011;10677;50.942;4.028;2022-08-14T00:48:38;4.88;;;2.60;;
21036;SDS011;10677;50.942;4.028;2022-08-14T00:51:06;7.25;;;2.80;;
21036;SDS011;10677;50.942;4.028;2022-08-14T00:53:33;8.25;;;2.70;;
21036;SDS011;10677;50.942;4.028;2022-08-14T00:56:00;5.13;;;2.90;;
21036;SDS011;10677;50.942;4.028;2022-08-14T00:58:27;12.57;;;3.20;;
21036;SDS011;10677;50.942;4.028;2022-08-14T01:01:00;4.00;;;2.58;;
21036;SDS011;10677;50.942;4.028;2022-08-14T01:03:28;5.35;;;2.78;;
21036;SDS011;10677;50.942;4.028;2022-08-14T01:05:55;5.35;;;3.00;;
21036;SDS011;10677;50.942;4.028;2022-08-14T01:08:27;6.00;;;2.67;;
21036;SDS011;10677;50.942;4.028;2022-08-14T01:10:55;7.72;;;3.20;;
21036;SDS011;10677;50.942;4.028;2022-08-14T01:13:23;3.95;;;2.50;;
21036;SDS011;10677;50.942;4.028;2022-08-14T01:15:55;5.43;;;2.80;;
21036;SDS011;10677;50.942;4.028;2022-08-14T01:18:22;8.90;;;3.03;;
21036;SDS011;10677;50.942;4.028;2022-08-14T01:21:07;5.35;;;3.08;;
21036;SDS011;10677;50.942;4.028;2022-08-14T01:23:38;4.93;;;2.88;;
21036;SDS011;10677;50.942;4.028;2022-08-14T01:26:06;5.90;;;3.30;;
21036;SDS011;10677;50.942;4.028;2022-08-14T01:28:33;5.05;;;2.75;;
21036;SDS011;10677;50.942;4.028;2022-08-14T01:31:03;4.53;;;2.83;;
21036;SDS011;10677;50.942;4.028;2022-08-14T01:33:30;5.65;;;3.45;;
21036;SDS011;10677;50.942;4.028;2022-08-14T01:35:56;5.80;;;3.10;;
21036;SDS011;10677;50.942;4.028;2022-08-14T01:38:25;5.63;;;3.00;;
21036;SDS011;10677;50.942;4.028;2022-08-14T01:40:59;7.30;;;3.28;;
21036;SDS011;10677;50.942;4.028;2022-08-14T01:43:25;7.50;;;3.05;;
21036;SDS011;10677;50.942;4.028;2022-08-14T01:45:56;5.05;;;2.95;;
21036;SDS011;10677;50.942;4.028;2022-08-14T01:48:22;8.98;;;2.88;;
21036;SDS011;10677;50.942;4.028;2022-08-14T01:50:49;7.55;;;3.15;;
21036;SDS011;10677;50.942;4.028;2022-08-14T01:53:15;6.68;;;2.80;;
21036;SDS011;10677;50.942;4.028;2022-08-14T01:55:41;6.07;;;3.25;;
21036;SDS011;10677;50.942;4.028;2022-08-14T01:58:07;6.70;;;3.10;;
21036;SDS011;10677;50.942;4.028;2022-08-14T02:00:40;6.22;;;2.83;;
21036;SDS011;10677;50.942;4.028;2022-08-14T02:03:05;7.22;;;2.97;;
21036;SDS011;10677;50.942;4.028;2022-08-14T02:05:32;4.95;;;3.33;;
21036;SDS011;10677;50.942;4.028;2022-08-14T02:07:58;6.68;;;3.20;;
21036;SDS011;10677;50.942;4.028;2022-08-14T02:10:24;9.32;;;3.58;;
21036;SDS011;10677;50.942;4.028;2022-08-14T02:12:53;5.95;;;2.75;;
21036;SDS011;10677;50.942;4.028;2022-08-14T02:15:21;7.15;;;3.50;;
21036;SDS011;10677;50.942;4.028;2022-08-14T02:17:48;7.50;;;2.97;;
21036;SDS011;10677;50.942;4.028;2022-08-14T02:20:14;6.38;;;3.28;;
21036;SDS011;10677;50.942;4.028;2022-08-14T02:22:41;8.77;;;3.00;;
21036;SDS011;10677;50.942;4.028;2022-08-14T02:25:08;6.75;;;3.38;;
21036;SDS011;10677;50.942;4.028;2022-08-14T02:27:34;4.82;;;3.42;;
21036;SDS011;10677;50.942;4.028;2022-08-14T02:30:01;7.75;;;2.95;;
21036;SDS011;10677;50.942;4.028;2022-08-14T02:32:29;6.03;;;2.97;;
21036;SDS011;10677;50.942;4.028;2022-08-14T02:34:55;6.05;;;3.38;;
21036;SDS011;10677;50.942;4.028;2022-08-14T02:37:21;6.20;;;3.30;;
21036;SDS011;10677;50.942;4.028;2022-08-14T02:39:47;7.22;;;3.13;;
21036;SDS011;10677;50.942;4.028;2022-08-14T02:42:16;5.82;;;2.60;;
21036;SDS011;10677;50.942;4.028;2022-08-14T02:44:45;6.40;;;3.20;;
21036;SDS011;10677;50.942;4.028;2022-08-14T02:47:10;6.05;;;3.22;;
21036;SDS011;10677;50.942;4.028;2022-08-14T02:49:36;7.97;;;3.15;;
21036;SDS011;10677;50.942;4.028;2022-08-14T02:52:02;7.70;;;3.55;;
21036;SDS011;10677;50.942;4.028;2022-08-14T02:54:31;4.60;;;3.25;;
21036;SDS011;10677;50.942;4.028;2022-08-14T02:56:58;7.35;;;3.38;;
21036;SDS011;10677;50.942;4.028;2022-08-14T02:59:25;8.85;;;3.47;;
21036;SDS011;10677;50.942;4.028;2022-08-14T03:01:53;5.43;;;2.70;;
21036;SDS011;10677;50.942;4.028;2022-08-14T03:04:21;5.97;;;3.00;;
21036;SDS011;10677;50.942;4.028;2022-08-14T03:06:47;7.03;;;4.03;;
21036;SDS011;10677;50.942;4.028;2022-08-14T03:09:14;7.00;;;3.40;;
21036;SDS011;10677;50.942;4.028;2022-08-14T03:11:40;5.07;;;3.67;;
21036;SDS011;10677;50.942;4.028;2022-08-14T03:14:08;5.50;;;3.28;;
21036;SDS011;10677;50.942;4.028;2022-08-14T03:16:36;4.45;;;3.30;;
21036;SDS011;10677;50.942;4.028;2022-08-14T03:19:03;6.35;;;3.65;;
21036;SDS011;10677;50.942;4.028;2022-08-14T03:21:31;10.07;;;3.33;;
21036;SDS011;10677;50.942;4.028;2022-08-14T03:23:58;6.45;;;3.60;;
21036;SDS011;10677;50.942;4.028;2022-08-14T03:26:35;4.82;;;2.92;;
21036;SDS011;10677;50.942;4.028;2022-08-14T03:29:04;4.13;;;3.20;;
21036;SDS011;10677;50.942;4.028;2022-08-14T03:31:30;7.35;;;3.35;;
21036;SDS011;10677;50.942;4.028;2022-08-14T03:33:55;5.22;;;2.95;;
21036;SDS011;10677;50.942;4.028;2022-08-14T03:36:22;5.57;;;3.42;;
21036;SDS011;10677;50.942;4.028;2022-08-14T03:38:48;5.15;;;3.40;;
21036;SDS011;10677;50.942;4.028;2022-08-14T03:41:18;5.32;;;2.90;;
21036;SDS011;10677;50.942;4.028;2022-08-14T03:43:46;6.82;;;2.95;;
21036;SDS011;10677;50.942;4.028;2022-08-14T03:46:13;5.95;;;3.45;;
21036;SDS011;10677;50.942;4.028;2022-08-14T03:48:40;4.47;;;2.80;;
21036;SDS011;10677;50.942;4.028;2022-08-14T03:51:07;5.55;;;3.00;;
21036;SDS011;10677;50.942;4.028;2022-08-14T03:53:35;5.88;;;2.90;;
21036;SDS011;10677;50.942;4.028;2022-08-14T03:56:02;7.60;;;3.08;;
21036;SDS011;10677;50.942;4.028;2022-08-14T03:58:29;5.60;;;2.80;;
21036;SDS011;10677;50.942;4.028;2022-08-14T04:00:56;5.57;;;3.28;;
21036;SDS011;10677;50.942;4.028;2022-08-14T04:03:26;6.63;;;3.55;;
21036;SDS011;10677;50.942;4.028;2022-08-14T04:05:52;6.88;;;3.22;;
21036;SDS011;10677;50.942;4.028;2022-08-14T04:08:18;5.90;;;3.33;;
21036;SDS011;10677;50.942;4.028;2022-08-14T04:10:44;5.28;;;3.25;;
21036;SDS011;10677;50.942;4.028;2022-08-14T04:13:11;7.25;;;3.72;;
21036;SDS011;10677;50.942;4.028;2022-08-14T04:15:42;5.65;;;3.53;;
21036;SDS011;10677;50.942;4.028;2022-08-14T04:18:09;6.00;;;3.15;;
21036;SDS011;10677;50.942;4.028;2022-08-14T04:20:36;6.25;;;3.70;;
21036;SDS011;10677;50.942;4.028;2022-08-14T04:23:03;6.38;;;3.55;;
21036;SDS011;10677;50.942;4.028;2022-08-14T04:25:31;6.47;;;3.55;;
21036;SDS011;10677;50.942;4.028;2022-08-14T04:27:59;5.90;;;3.85;;
21036;SDS011;10677;50.942;4.028;2022-08-14T04:30:25;8.15;;;4.00;;
21036;SDS011;10677;50.942;4.028;2022-08-14T04:32:53;6.32;;;3.80;;
21036;SDS011;10677;50.942;4.028;2022-08-14T04:35:19;7.15;;;3.78;;
21036;SDS011;10677;50.942;4.028;2022-08-14T04:37:45;10.18;;;4.35;;
21036;SDS011;10677;50.942;4.028;2022-08-14T04:40:29;7.05;;;3.95;;
21036;SDS011;10677;50.942;4.028;2022-08-14T04:43:14;5.57;;;3.95;;
21036;SDS011;10677;50.942;4.028;2022-08-14T04:45:58;8.23;;;4.25;;
21036;SDS011;10677;50.942;4.028;2022-08-14T04:48:25;7.53;;;3.97;;
21036;SDS011;10677;50.942;4.028;2022-08-14T04:50:52;6.88;;;3.60;;
21036;SDS011;10677;50.942;4.028;2022-08-14T04:53:24;5.15;;;3.85;;
21036;SDS011;10677;50.942;4.028;2022-08-14T04:55:51;7.30;;;4.72;;
21036;SDS011;10677;50.942;4.028;2022-08-14T04:58:18;8.35;;;4.65;;
21036;SDS011;10677;50.942;4.028;2022-08-14T05:00:46;6.50;;;4.60;;
21036;SDS011;10677;50.942;4.028;2022-08-14T05:03:22;6.57;;;4.50;;
21036;SDS011;10677;50.942;4.028;2022-08-14T05:05:55;7.47;;;4.40;;
21036;SDS011;10677;50.942;4.028;2022-08-14T05:08:25;6.93;;;3.95;;
21036;SDS011;10677;50.942;4.028;2022-08-14T05:10:53;12.55;;;4.32;;
21036;SDS011;10677;50.942;4.028;2022-08-14T05:13:21;5.55;;;3.70;;
21036;SDS011;10677;50.942;4.028;2022-08-14T05:15:49;9.27;;;4.45;;
21036;SDS011;10677;50.942;4.028;2022-08-14T05:18:17;7.15;;;4.30;;
21036;SDS011;10677;50.942;4.028;2022-08-14T05:20:48;8.10;;;4.10;;
21036;SDS011;10677;50.942;4.028;2022-08-14T05:23:16;7.10;;;4.00;;
21036;SDS011;10677;50.942;4.028;2022-08-14T05:25:45;8.15;;;4.00;;
21036;SDS011;10677;50.942;4.028;2022-08-14T05:28:13;5.43;;;3.92;;
21036;SDS011;10677;50.942;4.028;2022-08-14T05:33:16;10.93;;;4.10;;
21036;SDS011;10677;50.942;4.028;2022-08-14T05:35:44;8.13;;;4.07;;
21036;SDS011;10677;50.942;4.028;2022-08-14T05:38:11;7.22;;;4.30;;
21036;SDS011;10677;50.942;4.028;2022-08-14T05:40:38;5.75;;;4.13;;
21036;SDS011;10677;50.942;4.028;2022-08-14T05:43:05;10.52;;;6.00;;
21036;SDS011;10677;50.942;4.028;2022-08-14T05:45:31;8.23;;;5.32;;
21036;SDS011;10677;50.942;4.028;2022-08-14T05:47:59;8.60;;;5.70;;
21036;SDS011;10677;50.942;4.028;2022-08-14T05:50:28;9.98;;;6.03;;
21036;SDS011;10677;50.942;4.028;2022-08-14T05:52:54;9.57;;;5.97;;
21036;SDS011;10677;50.942;4.028;2022-08-14T05:55:21;9.48;;;5.63;;
21036;SDS011;10677;50.942;4.028;2022-08-14T06:00:23;11.57;;;4.75;;
21036;SDS011;10677;50.942;4.028;2022-08-14T06:02:51;9.25;;;4.97;;
21036;SDS011;10677;50.942;4.028;2022-08-14T06:05:17;7.13;;;5.07;;
21036;SDS011;10677;50.942;4.028;2022-08-14T06:07:43;7.70;;;4.80;;
21036;SDS011;10677;50.942;4.028;2022-08-14T06:10:09;6.75;;;4.82;;
21036;SDS011;10677;50.942;4.028;2022-08-14T06:12:35;8.40;;;5.00;;
21036;SDS011;10677;50.942;4.028;2022-08-14T06:15:01;8.05;;;5.15;;
21036;SDS011;10677;50.942;4.028;2022-08-14T06:17:29;9.63;;;5.68;;
21036;SDS011;10677;50.942;4.028;2022-08-14T06:19:54;8.90;;;5.97;;
21036;SDS011;10677;50.942;4.028;2022-08-14T06:22:20;10.13;;;6.75;;
21036;SDS011;10677;50.942;4.028;2022-08-14T06:24:45;11.27;;;6.60;;
21036;SDS011;10677;50.942;4.028;2022-08-14T06:27:11;10.88;;;7.13;;
21036;SDS011;10677;50.942;4.028;2022-08-14T06:29:37;9.57;;;6.20;;
21036;SDS011;10677;50.942;4.028;2022-08-14T06:32:03;7.68;;;5.30;;
21036;SDS011;10677;50.942;4.028;2022-08-14T06:34:29;10.20;;;6.25;;
21036;SDS011;10677;50.942;4.028;2022-08-14T06:36:55;9.40;;;6.28;;
21036;SDS011;10677;50.942;4.028;2022-08-14T06:39:21;10.32;;;5.55;;
21036;SDS011;10677;50.942;4.028;2022-08-14T06:41:47;9.00;;;5.53;;
21036;SDS011;10677;50.942;4.028;2022-08-14T06:44:13;8.98;;;5.70;;
21036;SDS011;10677;50.942;4.028;2022-08-14T06:46:39;8.48;;;5.15;;
21036;SDS011;10677;50.942;4.028;2022-08-14T06:49:05;5.47;;;3.45;;
21036;SDS011;10677;50.942;4.028;2022-08-14T06:51:30;8.32;;;4.40;;
21036;SDS011;10677;50.942;4.028;2022-08-14T06:53:57;8.07;;;3.85;;
21036;SDS011;10677;50.942;4.028;2022-08-14T06:56:22;5.40;;;2.78;;
21036;SDS011;10677;50.942;4.028;2022-08-14T06:58:48;5.50;;;2.22;;
21036;SDS011;10677;50.942;4.028;2022-08-14T07:01:14;7.97;;;2.90;;
21036;SDS011;10677;50.942;4.028;2022-08-14T07:03:58;4.07;;;2.33;;
21036;SDS011;10677;50.942;4.028;2022-08-14T07:06:42;5.90;;;2.50;;
21036;SDS011;10677;50.942;4.028;2022-08-14T07:09:11;5.10;;;2.38;;
21036;SDS011;10677;50.942;4.028;2022-08-14T07:11:36;5.55;;;2.33;;
21036;SDS011;10677;50.942;4.028;2022-08-14T07:14:02;4.28;;;2.65;;
21036;SDS011;10677;50.942;4.028;2022-08-14T07:16:28;6.03;;;2.33;;
21036;SDS011;10677;50.942;4.028;2022-08-14T07:18:54;5.53;;;2.75;;
21036;SDS011;10677;50.942;4.028;2022-08-14T07:21:20;3.03;;;2.00;;
21036;SDS011;10677;50.942;4.028;2022-08-14T07:23:46;6.47;;;2.80;;
21036;SDS011;10677;50.942;4.028;2022-08-14T07:26:11;5.53;;;2.78;;
21036;SDS011;10677;50.942;4.028;2022-08-14T07:28:38;5.75;;;3.42;;
21036;SDS011;10677;50.942;4.028;2022-08-14T07:31:06;5.20;;;3.25;;
21036;SDS011;10677;50.942;4.028;2022-08-14T07:33:35;5.15;;;3.33;;
21036;SDS011;10677;50.942;4.028;2022-08-14T07:36:02;6.32;;;3.58;;
21036;SDS011;10677;50.942;4.028;2022-08-14T07:38:30;5.53;;;2.97;;
21036;SDS011;10677;50.942;4.028;2022-08-14T07:40:56;8.48;;;3.50;;
21036;SDS011;10677;50.942;4.028;2022-08-14T07:43:23;5.43;;;3.42;;
21036;SDS011;10677;50.942;4.028;2022-08-14T07:45:49;8.77;;;4.75;;
21036;SDS011;10677;50.942;4.028;2022-08-14T07:48:15;5.57;;;2.80;;
21036;SDS011;10677;50.942;4.028;2022-08-14T07:50:41;6.65;;;3.25;;
21036;SDS011;10677;50.942;4.028;2022-08-14T07:53:07;4.97;;;3.00;;
21036;SDS011;10677;50.942;4.028;2022-08-14T07:55:33;5.47;;;3.55;;
21036;SDS011;10677;50.942;4.028;2022-08-14T07:57:59;4.88;;;3.10;;
21036;SDS011;10677;50.942;4.028;2022-08-14T08:00:25;7.28;;;3.17;;
21036;SDS011;10677;50.942;4.028;2022-08-14T08:02:53;5.57;;;2.80;;
21036;SDS011;10677;50.942;4.028;2022-08-14T08:05:20;5.55;;;2.92;;
21036;SDS011;10677;50.942;4.028;2022-08-14T08:07:50;5.10;;;2.90;;
21036;SDS011;10677;50.942;4.028;2022-08-14T08:10:18;4.30;;;2.85;;
21036;SDS011;10677;50.942;4.028;2022-08-14T08:13:06;4.03;;;2.88;;
21036;SDS011;10677;50.942;4.028;2022-08-14T08:15:39;4.75;;;2.83;;
21036;SDS011;10677;50.942;4.028;2022-08-14T08:18:08;8.02;;;2.92;;
21036;SDS011;10677;50.942;4.028;2022-08-14T08:20:36;5.07;;;2.72;;
21036;SDS011;10677;50.942;4.028;2022-08-14T08:23:04;4.05;;;2.58;;
21036;SDS011;10677;50.942;4.028;2022-08-14T08:25:31;7.13;;;2.88;;
21036;SDS011;10677;50.942;4.028;2022-08-14T08:28:04;4.97;;;2.85;;
21036;SDS011;10677;50.942;4.028;2022-08-14T08:30:38;4.95;;;2.65;;
21036;SDS011;10677;50.942;4.028;2022-08-14T08:33:06;3.92;;;3.08;;
21036;SDS011;10677;50.942;4.028;2022-08-14T08:35:34;5.03;;;2.72;;
21036;SDS011;10677;50.942;4.028;2022-08-14T08:38:10;4.72;;;2.70;;
21036;SDS011;10677;50.942;4.028;2022-08-14T08:40:42;5.97;;;2.85;;
21036;SDS011;10677;50.942;4.028;2022-08-14T08:45:43;5.57;;;3.03;;
21036;SDS011;10677;50.942;4.028;2022-08-14T08:48:16;5.80;;;2.88;;
21036;SDS011;10677;50.942;4.028;2022-08-14T08:50:42;3.70;;;2.50;;
21036;SDS011;10677;50.942;4.028;2022-08-14T08:53:08;3.03;;;2.40;;
21036;SDS011;10677;50.942;4.028;2022-08-14T08:55:38;5.30;;;2.17;;
21036;SDS011;10677;50.942;4.028;2022-08-14T08:58:10;3.17;;;2.20;;
21036;SDS011;10677;50.942;4.028;2022-08-14T09:00:39;5.53;;;2.50;;
21036;SDS011;10677;50.942;4.028;2022-08-14T09:03:06;3.53;;;2.28;;
21036;SDS011;10677;50.942;4.028;2022-08-14T09:05:38;3.17;;;2.00;;
21036;SDS011;10677;50.942;4.028;2022-08-14T09:08:23;6.20;;;2.10;;
21036;SDS011;10677;50.942;4.028;2022-08-14T09:10:53;4.82;;;1.80;;
21036;SDS011;10677;50.942;4.028;2022-08-14T09:13:20;8.18;;;2.67;;
21036;SDS011;10677;50.942;4.028;2022-08-14T09:15:49;3.75;;;1.70;;
21036;SDS011;10677;50.942;4.028;2022-08-14T09:18:16;5.30;;;2.13;;
21036;SDS011;10677;50.942;4.028;2022-08-14T09:20:45;5.22;;;1.90;;
21036;SDS011;10677;50.942;4.028;2022-08-14T09:23:12;3.85;;;2.10;;
21036;SDS011;10677;50.942;4.028;2022-08-14T09:25:39;5.05;;;2.58;;
21036;SDS011;10677;50.942;4.028;2022-08-14T09:28:06;6.63;;;2.13;;
21036;SDS011;10677;50.942;4.028;2022-08-14T09:30:35;2.88;;;1.58;;
21036;SDS011;10677;50.942;4.028;2022-08-14T09:38:21;2.45;;;1.40;;
21036;SDS011;10677;50.942;4.028;2022-08-14T09:43:58;2.75;;;1.35;;
21036;SDS011;10677;50.942;4.028;2022-08-14T09:46:30;3.53;;;1.63;;
21036;SDS011;10677;50.942;4.028;2022-08-14T09:48:57;3.63;;;1.50;;
21036;SDS011;10677;50.942;4.028;2022-08-14T09:51:27;3.28;;;1.80;;
21036;SDS011;10677;50.942;4.028;2022-08-14T09:59:16;1.98;;;1.20;;
21036;SDS011;10677;50.942;4.028;2022-08-14T10:01:46;2.85;;;1.30;;
21036;SDS011;10677;50.942;4.028;2022-08-14T10:04:21;2.80;;;1.30;;
21036;SDS011;10677;50.942;4.028;2022-08-14T10:06:49;3.42;;;1.25;;
21036;SDS011;10677;50.942;4.028;2022-08-14T10:09:15;4.03;;;1.30;;
21036;SDS011;10677;50.942;4.028;2022-08-14T10:11:52;3.20;;;1.45;;
21036;SDS011;10677;50.942;4.028;2022-08-14T10:14:23;4.10;;;1.58;;
21036;SDS011;10677;50.942;4.028;2022-08-14T10:16:53;4.43;;;1.30;;
21036;SDS011;10677;50.942;4.028;2022-08-14T10:19:24;3.50;;;1.20;;
21036;SDS011;10677;50.942;4.028;2022-08-14T10:21:58;2.33;;;1.33;;
21036;SDS011;10677;50.942;4.028;2022-08-14T10:24:32;4.40;;;1.48;;
21036;SDS011;10677;50.942;4.028;2022-08-14T10:27:11;4.38;;;1.45;;
21036;SDS011;10677;50.942;4.028;2022-08-14T10:29:49;2.50;;;1.08;;
21036;SDS011;10677;50.942;4.028;2022-08-14T10:32:16;2.10;;;1.23;;
21036;SDS011;10677;50.942;4.028;2022-08-14T10:34:42;2.10;;;1.38;;
21036;SDS011;10677;50.942;4.028;2022-08-14T10:37:12;3.40;;;1.30;;
21036;SDS011;10677;50.942;4.028;2022-08-14T10:39:41;6.57;;;1.40;;
21036;SDS011;10677;50.942;4.028;2022-08-14T10:42:09;2.47;;;1.20;;
21036;SDS011;10677;50.942;4.028;2022-08-14T10:44:38;3.60;;;1.20;;
21036;SDS011;10677;50.942;4.028;2022-08-14T10:47:11;3.42;;;1.10;;
21036;SDS011;10677;50.942;4.028;2022-08-14T10:49:42;3.08;;;1.20;;
21036;SDS011;10677;50.942;4.028;2022-08-14T10:52:21;3.13;;;1.38;;
21036;SDS011;10677;50.942;4.028;2022-08-14T11:00:16;2.90;;;1.17;;
21036;SDS011;10677;50.942;4.028;2022-08-14T11:02:54;2.15;;;1.20;;
21036;SDS011;10677;50.942;4.028;2022-08-14T11:05:25;1.77;;;1.00;;
21036;SDS011;10677;50.942;4.028;2022-08-14T11:08:02;1.38;;;1.10;;
21036;SDS011;10677;50.942;4.028;2022-08-14T11:13:08;3.58;;;1.42;;
21036;SDS011;10677;50.942;4.028;2022-08-14T11:15:34;4.32;;;1.30;;
21036;SDS011;10677;50.942;4.028;2022-08-14T11:18:00;1.73;;;0.93;;
21036;SDS011;10677;50.942;4.028;2022-08-14T11:20:28;4.53;;;1.08;;
21036;SDS011;10677;50.942;4.028;2022-08-14T11:22:56;1.60;;;1.20;;
21036;SDS011;10677;50.942;4.028;2022-08-14T11:25:25;1.35;;;0.98;;
21036;SDS011;10677;50.942;4.028;2022-08-14T11:27:56;4.07;;;1.10;;
21036;SDS011;10677;50.942;4.028;2022-08-14T11:30:27;2.13;;;1.10;;
21036;SDS011;10677;50.942;4.028;2022-08-14T11:32:54;2.17;;;1.20;;
21036;SDS011;10677;50.942;4.028;2022-08-14T11:35:21;4.13;;;1.50;;
21036;SDS011;10677;50.942;4.028;2022-08-14T11:40:18;5.38;;;1.33;;
21036;SDS011;10677;50.942;4.028;2022-08-14T11:42:46;2.78;;;1.40;;
21036;SDS011;10677;50.942;4.028;2022-08-14T11:45:13;2.50;;;1.35;;
21036;SDS011;10677;50.942;4.028;2022-08-14T11:47:39;3.72;;;1.10;;
21036;SDS011;10677;50.942;4.028;2022-08-14T11:50:15;3.30;;;1.17;;
21036;SDS011;10677;50.942;4.028;2022-08-14T11:52:43;4.40;;;1.45;;
21036;SDS011;10677;50.942;4.028;2022-08-14T11:55:10;1.92;;;1.10;;
21036;SDS011;10677;50.942;4.028;2022-08-14T11:57:38;4.97;;;1.60;;
21036;SDS011;10677;50.942;4.028;2022-08-14T12:00:05;7.07;;;1.52;;
21036;SDS011;10677;50.942;4.028;2022-08-14T12:02:36;2.38;;;1.35;;
21036;SDS011;10677;50.942;4.028;2022-08-14T12:05:14;5.30;;;1.10;;
21036;SDS011;10677;50.942;4.028;2022-08-14T12:07:48;5.40;;;3.53;;
21036;SDS011;10677;50.942;4.028;2022-08-14T12:10:16;3.15;;;1.23;;
21036;SDS011;10677;50.942;4.028;2022-08-14T12:12:43;2.83;;;1.25;;
21036;SDS011;10677;50.942;4.028;2022-08-14T12:15:08;5.03;;;1.60;;
21036;SDS011;10677;50.942;4.028;2022-08-14T12:17:45;2.42;;;1.20;;
21036;SDS011;10677;50.942;4.028;2022-08-14T12:20:15;3.92;;;1.48;;
21036;SDS011;10677;50.942;4.028;2022-08-14T12:22:42;2.70;;;1.15;;
21036;SDS011;10677;50.942;4.028;2022-08-14T12:25:13;2.30;;;0.95;;
21036;SDS011;10677;50.942;4.028;2022-08-14T12:27:44;2.05;;;1.13;;
21036;SDS011;10677;50.942;4.028;2022-08-14T12:30:25;7.40;;;1.10;;
21036;SDS011;10677;50.942;4.028;2022-08-14T12:32:54;4.85;;;1.15;;
21036;SDS011;10677;50.942;4.028;2022-08-14T12:35:20;2.63;;;1.13;;
21036;SDS011;10677;50.942;4.028;2022-08-14T12:37:47;3.05;;;1.20;;
21036;SDS011;10677;50.942;4.028;2022-08-14T12:40:14;4.25;;;1.30;;
21036;SDS011;10677;50.942;4.028;2022-08-14T12:42:41;3.75;;;1.02;;
21036;SDS011;10677;50.942;4.028;2022-08-14T12:45:09;3.50;;;1.13;;
21036;SDS011;10677;50.942;4.028;2022-08-14T12:47:40;2.05;;;1.20;;
21036;SDS011;10677;50.942;4.028;2022-08-14T12:50:06;3.67;;;1.20;;
21036;SDS011;10677;50.942;4.028;2022-08-14T12:52:39;3.92;;;1.10;;
21036;SDS011;10677;50.942;4.028;2022-08-14T12:55:08;1.98;;;1.00;;
21036;SDS011;10677;50.942;4.028;2022-08-14T12:57:42;1.67;;;1.05;;
21036;SDS011;10677;50.942;4.028;2022-08-14T13:00:30;1.38;;;0.77;;
21036;SDS011;10677;50.942;4.028;2022-08-14T13:02:55;2.58;;;0.90;;
21036;SDS011;10677;50.942;4.028;2022-08-14T13:05:23;2.65;;;0.80;;
21036;SDS011;10677;50.942;4.028;2022-08-14T13:07:56;1.65;;;0.80;;
21036;SDS011;10677;50.942;4.028;2022-08-14T13:10:23;1.80;;;0.93;;
21036;SDS011;10677;50.942;4.028;2022-08-14T13:12:51;4.05;;;1.15;;
21036;SDS011;10677;50.942;4.028;2022-08-14T13:15:20;1.90;;;1.00;;
21036;SDS011;10677;50.942;4.028;2022-08-14T13:17:47;4.28;;;0.85;;
21036;SDS011;10677;50.942;4.028;2022-08-14T13:20:21;2.35;;;0.80;;
21036;SDS011;10677;50.942;4.028;2022-08-14T13:22:49;4.38;;;0.93;;
21036;SDS011;10677;50.942;4.028;2022-08-14T13:25:17;4.43;;;0.80;;
21036;SDS011;10677;50.942;4.028;2022-08-14T13:27:45;3.08;;;1.17;;
21036;SDS011;10677;50.942;4.028;2022-08-14T13:30:13;1.73;;;1.02;;
21036;SDS011;10677;50.942;4.028;2022-08-14T13:32:40;3.53;;;1.00;;
21036;SDS011;10677;50.942;4.028;2022-08-14T13:35:09;2.83;;;1.80;;
21036;SDS011;10677;50.942;4.028;2022-08-14T13:37:35;4.07;;;1.25;;
21036;SDS011;10677;50.942;4.028;2022-08-14T13:40:03;2.05;;;1.13;;
21036;SDS011;10677;50.942;4.028;2022-08-14T13:42:29;2.03;;;0.88;;
21036;SDS011;10677;50.942;4.028;2022-08-14T13:44:56;2.72;;;1.13;;
21036;SDS011;10677;50.942;4.028;2022-08-14T13:47:25;2.90;;;1.10;;
21036;SDS011;10677;50.942;4.028;2022-08-14T13:49:57;2.45;;;1.13;;
21036;SDS011;10677;50.942;4.028;2022-08-14T13:52:29;2.00;;;1.20;;
21036;SDS011;10677;50.942;4.028;2022-08-14T13:55:00;3.17;;;1.23;;
21036;SDS011;10677;50.942;4.028;2022-08-14T13:57:28;1.80;;;1.08;;
21036;SDS011;10677;50.942;4.028;2022-08-14T14:00:03;3.20;;;1.23;;
21036;SDS011;10677;50.942;4.028;2022-08-14T14:02:36;2.15;;;1.02;;
21036;SDS011;10677;50.942;4.028;2022-08-14T14:05:15;8.55;;;1.25;;
21036;SDS011;10677;50.942;4.028;2022-08-14T14:07:47;2.15;;;1.10;;
21036;SDS011;10677;50.942;4.028;2022-08-14T14:10:15;2.65;;;1.02;;
21036;SDS011;10677;50.942;4.028;2022-08-14T14:12:43;1.20;;;0.85;;
21036;SDS011;10677;50.942;4.028;2022-08-14T14:15:10;5.15;;;1.08;;
21036;SDS011;10677;50.942;4.028;2022-08-14T14:17:38;2.70;;;1.05;;
21036;SDS011;10677;50.942;4.028;2022-08-14T14:20:04;1.77;;;0.90;;
21036;SDS011;10677;50.942;4.028;2022-08-14T14:22:32;2.08;;;0.98;;
21036;SDS011;10677;50.942;4.028;2022-08-14T14:24:57;1.50;;;0.80;;
21036;SDS011;10677;50.942;4.028;2022-08-14T14:27:26;3.38;;;0.90;;
21036;SDS011;10677;50.942;4.028;2022-08-14T14:29:53;3.17;;;1.10;;
21036;SDS011;10677;50.942;4.028;2022-08-14T14:32:24;2.65;;;1.17;;
21036;SDS011;10677;50.942;4.028;2022-08-14T14:34:53;4.28;;;1.15;;
21036;SDS011;10677;50.942;4.028;2022-08-14T14:37:19;1.58;;;1.00;;
21036;SDS011;10677;50.942;4.028;2022-08-14T14:39:47;2.78;;;1.00;;
21036;SDS011;10677;50.942;4.028;2022-08-14T14:42:16;1.92;;;1.00;;
21036;SDS011;10677;50.942;4.028;2022-08-14T14:44:43;1.83;;;1.00;;
21036;SDS011;10677;50.942;4.028;2022-08-14T14:47:16;2.65;;;1.00;;
21036;SDS011;10677;50.942;4.028;2022-08-14T14:49:47;2.80;;;0.93;;
21036;SDS011;10677;50.942;4.028;2022-08-14T14:52:13;3.05;;;1.00;;
21036;SDS011;10677;50.942;4.028;2022-08-14T14:54:40;3.28;;;0.93;;
21036;SDS011;10677;50.942;4.028;2022-08-14T14:57:08;2.95;;;0.90;;
21036;SDS011;10677;50.942;4.028;2022-08-14T14:59:38;1.65;;;1.00;;
21036;SDS011;10677;50.942;4.028;2022-08-14T15:02:05;2.20;;;0.90;;
21036;SDS011;10677;50.942;4.028;2022-08-14T15:04:32;2.80;;;1.25;;
21036;SDS011;10677;50.942;4.028;2022-08-14T15:06:59;3.60;;;0.98;;
21036;SDS011;10677;50.942;4.028;2022-08-14T15:09:25;2.55;;;1.20;;
21036;SDS011;10677;50.942;4.028;2022-08-14T15:11:51;2.25;;;1.15;;
21036;SDS011;10677;50.942;4.028;2022-08-14T15:14:17;3.58;;;1.30;;
21036;SDS011;10677;50.942;4.028;2022-08-14T15:16:44;1.98;;;0.95;;
21036;SDS011;10677;50.942;4.028;2022-08-14T15:19:10;4.03;;;1.38;;
21036;SDS011;10677;50.942;4.028;2022-08-14T15:21:36;6.78;;;1.35;;
21036;SDS011;10677;50.942;4.028;2022-08-14T15:24:02;2.55;;;1.20;;
21036;SDS011;10677;50.942;4.028;2022-08-14T15:26:28;3.35;;;1.30;;
21036;SDS011;10677;50.942;4.028;2022-08-14T15:28:53;3.85;;;1.10;;